| time (UTC) | temp F | wind direction | speed MPH | gust MPH | rain 1hr in | rain 24hr in | rain mn in | humidity % | barometer mb |
| 20260510221134 | 44 | 214 | 3.0 | 4.0 | 0.00 | 0.00 | 0.00 | 65 | 1014.4 |
| 20260510220105 | 44 | 200 | 3.0 | 4.0 | 0.00 | 0.00 | 0.00 | 64 | 1014.5 |
| 20260510215111 | 45 | 203 | 3.0 | 4.0 | 0.00 | 0.00 | 0.00 | 64 | 1014.5 |
| 20260510213036 | 45 | 213 | 3.0 | 5.0 | 0.00 | 0.00 | 0.00 | 62 | 1014.5 |
| 20260510212018 | 46 | 222 | 3.0 | 4.0 | 0.00 | 0.00 | 0.00 | 61 | 1014.5 |
| 20260510210947 | 46 | 215 | 3.0 | 5.0 | 0.00 | 0.00 | 0.00 | 60 | 1014.6 |
| 20260510205924 | 46 | 213 | 3.0 | 4.0 | 0.00 | 0.00 | 0.00 | 60 | 1014.6 |
| 20260510204937 | 47 | 209 | 3.0 | 5.0 | 0.00 | 0.00 | 0.00 | 59 | 1014.8 |
| 20260510203935 | 47 | 197 | 4.0 | 5.0 | 0.00 | 0.00 | 0.00 | 59 | 1014.8 |
| 20260510202928 | 48 | 204 | 3.0 | 5.0 | 0.00 | 0.00 | 0.00 | 59 | 1014.8 |
| 20260510201953 | 48 | 215 | 3.0 | 4.0 | 0.00 | 0.00 | 0.00 | 58 | 1014.7 |
| 20260510200935 | 49 | 205 | 3.0 | 4.0 | 0.00 | 0.00 | 0.00 | 57 | 1014.9 |
| 20260510195954 | 49 | 207 | 4.0 | 4.0 | 0.00 | 0.00 | 0.00 | 56 | 1014.9 |
| 20260510194933 | 49 | 210 | 3.0 | 4.0 | 0.00 | 0.00 | 0.00 | 55 | 1014.9 |
| 20260510193920 | 50 | 198 | 3.0 | 5.0 | 0.00 | 0.00 | 0.00 | 54 | 1015.0 |
| 20260510191812 | 51 | 201 | 3.0 | 4.0 | 0.00 | 0.00 | 0.00 | 53 | 1015.2 |
| 20260510190810 | 51 | 174 | 3.0 | 5.0 | 0.00 | 0.00 | 0.00 | 53 | 1015.3 |
| 20260510185750 | 52 | 208 | 3.0 | 8.0 | 0.00 | 0.00 | 0.00 | 53 | 1015.2 |
| 20260510184752 | 52 | 180 | 3.0 | 8.0 | 0.00 | 0.00 | 0.00 | 52 | 1015.3 |
| 20260510182654 | 53 | 218 | 3.0 | 6.0 | 0.00 | 0.00 | 0.00 | 53 | 1015.4 |
| 20260510181635 | 53 | 217 | 3.0 | 7.0 | 0.00 | 0.00 | 0.00 | 52 | 1015.7 |
| 20260510180655 | 53 | 200 | 4.0 | 7.0 | 0.00 | 0.00 | 0.00 | 51 | 1015.4 |
| 20260510175650 | 54 | 183 | 4.0 | 6.0 | 0.00 | 0.00 | 0.00 | 51 | 1015.5 |
| 20260510174702 | 54 | 215 | 3.0 | 7.0 | 0.00 | 0.00 | 0.00 | 50 | 1015.5 |
| 20260510172518 | 56 | 142 | 3.0 | 9.0 | 0.00 | 0.00 | 0.00 | 46 | 1015.5 |
| 20260510170307 | 58 | 215 | 3.0 | 9.0 | 0.00 | 0.00 | 0.00 | 45 | 1015.6 |
| 20260510165328 | 58 | 150 | 3.0 | 9.0 | 0.00 | 0.00 | 0.00 | 46 | 1015.7 |
| 20260510164342 | 58 | 142 | 3.0 | 8.0 | 0.00 | 0.00 | 0.00 | 43 | 1015.9 |
| 20260510163352 | 58 | 171 | 4.0 | 8.0 | 0.00 | 0.00 | 0.00 | 45 | 1015.9 |
| 20260510162412 | 59 | 155 | 3.0 | 13.0 | 0.00 | 0.00 | 0.00 | 43 | 1016.1 |
| 20260510160308 | 57 | 138 | 3.0 | 8.0 | 0.00 | 0.00 | 0.00 | 47 | 1016.5 |
| 20260510154137 | 57 | 359 | 3.0 | 7.0 | 0.00 | 0.00 | 0.00 | 46 | 1016.7 |
| 20260510153125 | 58 | 30 | 3.0 | 10.0 | 0.00 | 0.00 | 0.00 | 45 | 1016.8 |
| 20260510152141 | 59 | 69 | 4.0 | 10.0 | 0.00 | 0.00 | 0.00 | 44 | 1016.7 |
| 20260510151125 | 58 | 120 | 4.0 | 8.0 | 0.00 | 0.00 | 0.00 | 46 | 1016.9 |
| 20260510150113 | 58 | 1 | 3.0 | 5.0 | 0.00 | 0.00 | 0.00 | 45 | 1016.9 |
| 20260510140144 | 59 | 166 | 5.0 | 8.0 | 0.00 | 0.00 | 0.00 | 48 | 1017.6 |
| 20260510135133 | 59 | 130 | 4.0 | 12.0 | 0.00 | 0.00 | 0.00 | 50 | 1017.7 |
| 20260510134143 | 59 | 99 | 4.0 | 13.0 | 0.00 | 0.00 | 0.00 | 47 | 1017.8 |
| 20260510133203 | 60 | 185 | 4.0 | 13.0 | 0.00 | 0.00 | 0.00 | 49 | 1017.7 |
| 20260510132131 | 59 | 152 | 4.0 | 9.0 | 0.00 | 0.00 | 0.00 | 48 | 1017.9 |
| 20260510131154 | 61 | 153 | 4.0 | 9.0 | 0.00 | 0.00 | 0.00 | 46 | 1017.9 |
| 20260510125045 | 62 | 112 | 5.0 | 11.0 | 0.00 | 0.00 | 0.00 | 46 | 1018.0 |
| 20260510124103 | 61 | 150 | 5.0 | 11.0 | 0.00 | 0.00 | 0.00 | 46 | 1018.2 |
| 20260510123123 | 60 | 172 | 5.0 | 11.0 | 0.00 | 0.00 | 0.00 | 51 | 1018.2 |
| 20260510122115 | 59 | 137 | 4.0 | 10.0 | 0.00 | 0.00 | 0.00 | 50 | 1018.4 |
| 20260510121114 | 58 | 155 | 4.0 | 9.0 | 0.00 | 0.00 | 0.00 | 53 | 1018.4 |
| 20260510120104 | 55 | 181 | 4.0 | 9.0 | 0.00 | 0.00 | 0.00 | 54 | 1018.8 |
| 20260510115128 | 56 | 71 | 4.0 | 9.0 | 0.00 | 0.00 | 0.00 | 52 | 1018.7 |
| 20260510114135 | 56 | 79 | 4.0 | 8.0 | 0.00 | 0.00 | 0.00 | 51 | 1018.9 |
| 20260510113108 | 55 | 196 | 4.0 | 9.0 | 0.00 | 0.00 | 0.00 | 55 | 1019.0 |
| 20260510112051 | 56 | 92 | 9.0 | 9.0 | 0.00 | 0.00 | 0.00 | 57 | 1019.2 |
| 20260510111050 | 56 | 152 | 5.0 | 9.0 | 0.00 | 0.00 | 0.00 | 55 | 1019.1 |
| 20260510110111 | 55 | 199 | 5.0 | 11.0 | 0.00 | 0.00 | 0.00 | 58 | 1019.3 |
| 20260510105113 | 54 | 137 | 4.0 | 13.0 | 0.00 | 0.00 | 0.00 | 61 | 1019.4 |
| 20260510104101 | 53 | 122 | 4.0 | 13.0 | 0.00 | 0.00 | 0.00 | 62 | 1019.6 |
| 20260510103027 | 53 | 135 | 4.0 | 11.0 | 0.00 | 0.00 | 0.00 | 62 | 1019.6 |
| 20260510102047 | 52 | 210 | 4.0 | 8.0 | 0.00 | 0.00 | 0.00 | 63 | 1019.6 |
| 20260510101044 | 52 | 132 | 4.0 | 8.0 | 0.00 | 0.00 | 0.00 | 64 | 1019.7 |
| 20260510100052 | 51 | 135 | 4.0 | 10.0 | 0.00 | 0.00 | 0.00 | 66 | 1019.8 |
| 20260510095047 | 51 | 152 | 4.0 | 11.0 | 0.00 | 0.00 | 0.00 | 67 | 1019.9 |
| 20260510094014 | 50 | 214 | 3.0 | 7.0 | 0.00 | 0.00 | 0.00 | 71 | 1020.1 |
| 20260510093022 | 50 | 139 | 4.0 | 8.0 | 0.00 | 0.00 | 0.00 | 70 | 1020.1 |
| 20260510092041 | 49 | 148 | 4.0 | 8.0 | 0.00 | 0.00 | 0.00 | 71 | 1020.3 |
| 20260510091041 | 49 | 161 | 4.0 | 8.0 | 0.00 | 0.00 | 0.00 | 72 | 1020.2 |
| 20260510090042 | 49 | 180 | 4.0 | 10.0 | 0.00 | 0.00 | 0.00 | 73 | 1020.3 |
| 20260510083922 | 48 | 221 | 4.0 | 9.0 | 0.00 | 0.00 | 0.00 | 74 | 1020.4 |
| 20260510082946 | 48 | 193 | 4.0 | 9.0 | 0.00 | 0.00 | 0.00 | 74 | 1020.4 |
| 20260510081959 | 48 | 139 | 4.0 | 9.0 | 0.00 | 0.00 | 0.00 | 74 | 1020.3 |
| 20260510080938 | 47 | 123 | 5.0 | 10.0 | 0.00 | 0.00 | 0.00 | 75 | 1020.4 |
| 20260510075926 | 47 | 148 | 4.0 | 11.0 | 0.00 | 0.00 | 0.00 | 75 | 1020.3 |
| 20260510074903 | 47 | 38 | 5.0 | 10.0 | 0.00 | 0.00 | 0.00 | 75 | 1020.3 |
| 20260510073836 | 47 | 160 | 4.0 | 11.0 | 0.00 | 0.00 | 0.00 | 76 | 1020.5 |
| 20260510072812 | 47 | 86 | 5.0 | 11.0 | 0.00 | 0.00 | 0.00 | 76 | 1020.6 |
| 20260510071807 | 46 | 157 | 4.0 | 9.0 | 0.00 | 0.00 | 0.00 | 78 | 1020.4 |
| 20260510070736 | 46 | 1 | 4.0 | 10.0 | 0.00 | 0.00 | 0.00 | 79 | 1020.4 |
| 20260510065746 | 46 | 100 | 4.0 | 12.0 | 0.00 | 0.00 | 0.00 | 79 | 1020.4 |
| 20260510063617 | 46 | 81 | 5.0 | 10.0 | 0.00 | 0.00 | 0.00 | 79 | 1020.1 |
| 20260510062622 | 46 | 49 | 4.0 | 11.0 | 0.00 | 0.00 | 0.00 | 79 | 1020.3 |
| 20260510061635 | 46 | 126 | 4.0 | 12.0 | 0.00 | 0.00 | 0.00 | 80 | 1020.3 |
| 20260510060614 | 45 | 104 | 5.0 | 12.0 | 0.00 | 0.00 | 0.00 | 80 | 1020.2 |
| 20260510055544 | 45 | 109 | 4.0 | 10.0 | 0.00 | 0.00 | 0.00 | 81 | 1020.1 |
| 20260510054528 | 45 | 353 | 3.0 | 8.0 | 0.00 | 0.00 | 0.00 | 82 | 1020.1 |
| 20260510051151 | 46 | 50 | 3.0 | 10.0 | 0.00 | 0.00 | 0.00 | 83 | 1020.2 |
| 20260510050145 | 46 | 157 | 4.0 | 11.0 | 0.00 | 0.00 | 0.00 | 83 | 1020.1 |
| 20260510045118 | 46 | 71 | 3.0 | 7.0 | 0.00 | 0.00 | 0.00 | 84 | 1020.0 |
| 20260510044110 | 46 | 59 | 4.0 | 11.0 | 0.00 | 0.00 | 0.00 | 84 | 1020.0 |
| 20260510043125 | 46 | 180 | 4.0 | 11.0 | 0.00 | 0.00 | 0.00 | 85 | 1019.7 |
| 20260510042055 | 46 | 94 | 4.0 | 14.0 | 0.00 | 0.00 | 0.00 | 85 | 1019.7 |
| 20260510041055 | 46 | 60 | 5.0 | 14.0 | 0.00 | 0.00 | 0.00 | 85 | 1019.8 |
| 20260510040028 | 46 | 47 | 4.0 | 11.0 | 0.00 | 0.00 | 0.00 | 86 | 1019.9 |
| 20260510035029 | 46 | 183 | 4.0 | 13.0 | 0.00 | 0.00 | 0.00 | 86 | 1020.0 |
| 20260510032854 | 46 | 84 | 4.0 | 11.0 | 0.00 | 0.00 | 0.00 | 87 | 1020.0 |
| 20260510031844 | 46 | 102 | 4.0 | 9.0 | 0.00 | 0.00 | 0.00 | 87 | 1020.1 |
| 20260510030859 | 46 | 17 | 4.0 | 10.0 | 0.00 | 0.00 | 0.00 | 87 | 1020.2 |
| 20260510025825 | 46 | 116 | 4.0 | 10.0 | 0.00 | 0.00 | 0.00 | 88 | 1020.5 |
| 20260510023738 | 46 | 133 | 4.0 | 9.0 | 0.00 | 0.00 | 0.00 | 89 | 1020.5 |
| 20260510022729 | 47 | 86 | 4.0 | 9.0 | 0.00 | 0.00 | 0.00 | 88 | 1020.6 |
| 20260510021734 | 47 | 255 | 3.0 | 6.0 | 0.00 | 0.00 | 0.00 | 88 | 1020.5 |
| 20260510020745 | 47 | 150 | 3.0 | 9.0 | 0.00 | 0.00 | 0.00 | 88 | 1020.6 |
| 20260510015723 | 47 | 213 | 4.0 | 9.0 | 0.00 | 0.00 | 0.00 | 88 | 1020.6 |
| 20260510014748 | 47 | 108 | 3.0 | 9.0 | 0.00 | 0.00 | 0.00 | 89 | 1020.6 |
| 20260510013748 | 47 | 106 | 4.0 | 10.0 | 0.00 | 0.00 | 0.00 | 89 | 1020.5 |
| 20260510012757 | 47 | 84 | 4.0 | 16.0 | 0.00 | 0.00 | 0.00 | 89 | 1020.3 |
| 20260510011805 | 47 | 25 | 6.0 | 16.0 | 0.00 | 0.00 | 0.00 | 90 | 1020.1 |
| 20260510010826 | 47 | 28 | 5.0 | 12.0 | 0.00 | 0.00 | 0.00 | 90 | 1020.2 |
| 20260510005805 | 47 | 82 | 4.0 | 11.0 | 0.00 | 0.00 | 0.00 | 90 | 1020.4 |
| 20260510004827 | 47 | 191 | 4.0 | 10.0 | 0.00 | 0.00 | 0.00 | 90 | 1020.4 |
| 20260510003757 | 47 | 161 | 4.0 | 12.0 | 0.00 | 0.00 | 0.00 | 89 | 1020.6 |
| 20260510002749 | 47 | 41 | 6.0 | 12.0 | 0.00 | 0.00 | 0.00 | 89 | 1020.6 |
| 20260510001733 | 47 | 54 | 4.0 | 11.0 | 0.00 | 0.00 | 0.00 | 89 | 1020.7 |
| 20260510000746 | 48 | 318 | 5.0 | 11.0 | 0.00 | 0.00 | 0.00 | 88 | 1020.6 |
| 20260509235723 | 48 | 91 | 4.0 | 13.0 | 0.00 | 0.00 | 0.00 | 87 | 1020.6 |
| 20260509234731 | 48 | 33 | 5.0 | 13.0 | 0.00 | 0.00 | 0.00 | 87 | 1020.6 |
| 20260509233707 | 48 | 32 | 5.0 | 13.0 | 0.00 | 0.00 | 0.00 | 86 | 1020.6 |
| 20260509232653 | 49 | 1 | 5.0 | 12.0 | 0.00 | 0.00 | 0.00 | 85 | 1020.5 |
| 20260509231708 | 49 | 81 | 6.0 | 12.0 | 0.00 | 0.00 | 0.00 | 84 | 1020.4 |
| 20260509230650 | 49 | 124 | 4.0 | 11.0 | 0.00 | 0.00 | 0.00 | 83 | 1020.3 |
| 20260509224552 | 50 | 124 | 4.0 | 11.0 | 0.00 | 0.00 | 0.00 | 83 | 1020.2 |
| 20260509223540 | 50 | 110 | 4.0 | 11.0 | 0.00 | 0.00 | 0.00 | 84 | 1020.1 |
| 20260509222548 | 50 | 123 | 4.0 | 9.0 | 0.00 | 0.00 | 0.00 | 84 | 1020.0 |